Impacts TAF Board
For situational awareness. Not to be used for flight planning purposes.
IDs:

KDTW - Detroit Metro/Wayne, MI, US

Issued at 2320 UTC 18 Feb 2019
Updated at 0218 UTC 19 Feb 2019
Potential Impact None Slight Moderate High
Time0153Z 19/03Z 19/04Z 19/05Z 19/06Z 19/07Z 19/08Z 19/09Z 19/10Z 19/11Z 19/12Z 19/13Z 19/14Z 19/15Z>>
Type OBS PRVL PRVL PRVL PRVL PRVL PRVL PRVL PRVL PRVL PRVL PRVL PRVL PRVL
VIS 10 >6 >6 >6 >6 >6 >6 >6 >6 >6 >6 >6 >6 >6
CIG -- -- -- -- -- -- -- -- -- -- -- -- -- --
Cover CLR SKC SKC SKC SKC SKC SKC SKC SKC SKC SKC SKC SKC SKC
FltCat VFR VFR VFR VFR VFR VFR VFR VFR VFR VFR VFR VFR VFR VFR
WX -- -- -- -- -- -- -- -- -- -- -- -- -- --
WDir 340 VRB VRB VRB VRB VRB VRB VRB VRB VRB VRB VRB VRB VRB
WSpd 3 4 4 4 4 4 4 4 4 4 4 4 4 4
WGst -- -- -- -- -- -- -- -- -- -- -- -- -- --
Raw TAF
KDTW 182320Z 1900/2006 33006KT P6SM SCT040
  FM190100 VRB04KT P6SM SKC
  FM192200 10005KT P6SM SCT250


Raw METAR
KDTW 190153Z 34003KT 10SM CLR M07/M13 A3048 RMK AO2 SLP333 T10671128 $
KDTW 190053Z 33004KT 10SM FEW040 M06/M12 A3046 RMK AO2 SLP325 T10561122 $
KDTW 182353Z 32005KT 10SM FEW040 M05/M12 A3043 RMK AO2 SLP316 T10501122 11011 21050 53037 $

METAR Board
Radar Display
Forecast Discussion
For situational awareness. Not to be used for flight planning purposes.